Time;durP1;ratioP1;P1;durP2;ratioP2;P2;SDS_P1;SDS_P2;PMS_P1;PMS_P2;Temp;Humidity;BMP_temperature;BMP_pressure;BME280_temperature;BME280_humidity;BME280_pressure;Samples;Min_cycle;Max_cycle;Signal;HPM_P1;HPM_P2
2022/05/15 00:01:49;;;;;;;8.35;3.38;;;;;;;10.94;100.00;101206.94;5943460;29;20407;-96
2022/05/15 00:04:51;;;;;;;9.63;3.30;;;;;;;10.93;100.00;101204.44;5933877;29;20087;-96
2022/05/15 00:07:56;;;;;;;9.55;3.03;;;;;;;10.88;100.00;101201.34;5947502;29;20150;-96
2022/05/15 00:11:03;;;;;;;8.18;3.10;;;;;;;10.83;100.00;101196.50;5926613;29;20552;-96
2022/05/15 00:14:06;;;;;;;8.52;3.03;;;;;;;10.80;100.00;101196.69;5930474;29;20043;-96
2022/05/15 00:17:08;;;;;;;8.75;3.15;;;;;;;10.79;100.00;101197.63;5931756;29;20058;-96
2022/05/15 00:20:14;;;;;;;10.60;3.15;;;;;;;10.71;100.00;101190.41;5932008;29;20087;-96
2022/05/15 00:23:23;;;;;;;8.45;2.90;;;;;;;10.71;100.00;101197.34;5918807;29;20708;-96
2022/05/15 00:26:26;;;;;;;9.50;3.00;;;;;;;10.66;100.00;101197.66;6002109;29;20198;-96
2022/05/15 00:29:28;;;;;;;10.15;4.20;;;;;;;10.65;100.00;101190.81;6028354;29;20044;-96
2022/05/15 00:32:32;;;;;;;7.95;3.13;;;;;;;10.64;100.00;101193.53;6036011;29;20049;-96
2022/05/15 00:35:39;;;;;;;8.05;3.35;;;;;;;10.55;100.00;101194.97;6033820;29;20045;-96
2022/05/15 00:38:42;;;;;;;11.43;3.80;;;;;;;10.53;100.00;101197.69;6008249;29;20174;-96
2022/05/15 00:41:44;;;;;;;12.45;3.53;;;;;;;10.53;100.00;101187.31;6001952;29;20049;-96
2022/05/15 00:44:47;;;;;;;10.38;3.58;;;;;;;10.47;100.00;101182.53;6019169;29;20125;-96
2022/05/15 00:47:50;;;;;;;11.38;3.85;;;;;;;10.44;100.00;101190.53;6035682;29;20060;-96
2022/05/15 00:50:54;;;;;;;10.27;3.83;;;;;;;10.37;100.00;101188.47;6006382;29;20053;-96
2022/05/15 00:54:09;;;;;;;8.40;3.35;;;;;;;10.29;100.00;101186.38;6014306;29;20578;-96
2022/05/15 00:57:18;;;;;;;7.88;2.97;;;;;;;10.27;100.00;101195.97;6042312;29;20177;-96
2022/05/15 01:00:25;;;;;;;10.50;3.58;;;;;;;10.23;100.00;101190.16;6035856;29;20077;-96
2022/05/15 01:03:28;;;;;;;7.88;3.83;;;;;;;10.23;100.00;101190.16;5995738;29;20084;-96
2022/05/15 01:06:32;;;;;;;8.48;2.83;;;;;;;10.24;100.00;101185.84;6017580;29;20041;-96
2022/05/15 01:09:35;;;;;;;11.18;3.50;;;;;;;10.21;100.00;101189.47;6020005;29;20455;-96
2022/05/15 01:12:40;;;;;;;10.90;3.15;;;;;;;10.16;100.00;101190.66;6018403;29;20045;-96
2022/05/15 01:15:47;;;;;;;8.70;2.53;;;;;;;10.13;100.00;101189.13;6034156;29;20048;-96
2022/05/15 01:18:57;;;;;;;9.80;2.90;;;;;;;10.14;100.00;101191.63;5998370;29;20253;-96
2022/05/15 01:22:04;;;;;;;8.35;2.97;;;;;;;10.12;100.00;101190.06;6011596;29;20041;-96
2022/05/15 01:25:19;;;;;;;9.80;2.92;;;;;;;10.09;100.00;101193.69;6010984;29;20120;-96
2022/05/15 01:28:24;;;;;;;7.68;2.40;;;;;;;10.05;100.00;101193.97;6022845;29;20049;-96
2022/05/15 01:31:27;;;;;;;6.18;2.70;;;;;;;10.02;100.00;101192.44;6002305;29;20052;-96
2022/05/15 01:34:30;;;;;;;8.10;2.60;;;;;;;9.96;100.00;101187.63;6016047;29;20076;-96
2022/05/15 01:37:32;;;;;;;5.43;2.60;;;;;;;9.95;100.00;101188.59;6008301;29;20056;-96
2022/05/15 01:40:36;;;;;;;8.23;2.67;;;;;;;9.97;100.00;101191.91;6035288;29;20045;-96
2022/05/15 01:43:44;;;;;;;6.90;2.72;;;;;;;9.91;100.00;101184.53;6002660;29;20061;-96
2022/05/15 01:46:48;;;;;;;4.82;2.47;;;;;;;9.88;100.00;101195.09;6012813;29;20045;-96
2022/05/15 01:49:54;;;;;;;9.90;3.22;;;;;;;9.86;100.00;101184.00;6007198;29;20148;-96
2022/05/15 01:52:57;;;;;;;10.45;3.35;;;;;;;9.83;100.00;101194.56;6003741;29;20089;-96
2022/05/15 01:55:59;;;;;;;9.05;2.83;;;;;;;9.81;100.00;101194.69;6029828;29;20040;-96
2022/05/15 01:59:02;;;;;;;5.85;2.67;;;;;;;9.77;100.00;101188.03;6019245;29;20041;-96
2022/05/15 02:02:07;;;;;;;8.45;3.53;;;;;;;9.72;100.00;101191.84;6022407;29;20044;-96
2022/05/15 02:05:10;;;;;;;6.50;2.60;;;;;;;9.66;100.00;101188.75;6012920;29;20064;-96
2022/05/15 02:08:12;;;;;;;9.82;3.05;;;;;;;9.61;100.00;101188.19;6017698;29;20396;-96
2022/05/15 02:11:15;;;;;;;7.50;2.40;;;;;;;9.67;100.00;101194.72;6020970;29;20188;-96
2022/05/15 02:14:20;;;;;;;5.70;2.70;;;;;;;9.65;100.00;101188.81;6030513;29;20041;-96
2022/05/15 02:17:23;;;;;;;5.75;2.72;;;;;;;9.63;100.00;101194.09;6023997;29;20080;-96
2022/05/15 02:20:27;;;;;;;6.22;2.60;;;;;;;9.55;100.00;101188.59;6021747;29;20049;-96
2022/05/15 02:23:31;;;;;;;6.20;2.67;;;;;;;9.54;100.00;101192.09;6007273;29;20077;-96
2022/05/15 02:26:35;;;;;;;8.32;3.38;;;;;;;9.52;100.00;101196.53;6023249;29;20054;-96
2022/05/15 02:29:38;;;;;;;9.40;2.88;;;;;;;9.50;100.00;101190.63;6017230;29;20167;-96
2022/05/15 02:32:41;;;;;;;6.32;2.72;;;;;;;9.43;100.00;101194.53;6028557;29;20049;-96
2022/05/15 02:35:45;;;;;;;8.57;3.20;;;;;;;9.38;100.00;101194.81;6009944;29;20052;-96
2022/05/15 02:38:50;;;;;;;9.50;3.50;;;;;;;9.34;100.00;101190.78;6038935;29;20065;-96
2022/05/15 02:41:54;;;;;;;8.43;2.70;;;;;;;9.31;100.00;101193.53;6017907;29;20639;-96
2022/05/15 02:44:57;;;;;;;8.05;2.80;;;;;;;9.28;100.00;101191.97;6025397;29;20515;-96
2022/05/15 02:48:02;;;;;;;6.80;2.50;;;;;;;9.26;100.00;101193.81;6011833;29;20128;-96
2022/05/15 02:51:06;;;;;;;8.30;2.78;;;;;;;9.21;100.00;101195.88;6030467;29;20049;-96
2022/05/15 02:54:09;;;;;;;6.57;2.63;;;;;;;9.12;100.00;101200.78;6024638;29;20052;-96
2022/05/15 02:57:12;;;;;;;7.47;2.85;;;;;;;9.09;100.00;101191.47;6002082;29;20101;-96
2022/05/15 03:00:15;;;;;;;9.77;2.95;;;;;;;9.15;100.00;101198.84;6022902;29;20424;-96
2022/05/15 03:03:20;;;;;;;7.25;3.25;;;;;;;9.15;100.00;101191.09;6043969;29;20049;-96
2022/05/15 03:06:22;;;;;;;8.32;2.60;;;;;;;9.10;100.00;101194.91;6012484;29;20049;-96
2022/05/15 03:09:28;;;;;;;6.93;2.90;;;;;;;9.05;100.00;101196.00;6015812;29;20057;-96
2022/05/15 03:12:31;;;;;;;7.30;2.72;;;;;;;9.05;100.00;101200.34;6014853;29;20072;-96
2022/05/15 03:15:34;;;;;;;8.20;2.63;;;;;;;9.08;100.00;101199.31;6002303;29;20046;-96
2022/05/15 03:18:44;;;;;;;9.00;2.95;;;;;;;9.04;100.00;101196.94;6013821;29;20057;-96
2022/05/15 03:21:46;;;;;;;8.13;3.25;;;;;;;9.02;100.00;101201.38;6012230;29;20185;-96
2022/05/15 03:24:49;;;;;;;7.15;3.35;;;;;;;9.01;100.00;101202.28;6028357;29;20081;-96
2022/05/15 03:27:53;;;;;;;7.85;3.00;;;;;;;8.99;100.00;101200.72;6005839;29;20041;-96
2022/05/15 03:30:56;;;;;;;8.60;2.80;;;;;;;9.01;100.00;101198.88;6030967;29;20132;-96
2022/05/15 03:33:58;;;;;;;11.25;3.10;;;;;;;9.00;100.00;101202.38;6027063;29;20049;-96
2022/05/15 03:37:01;;;;;;;9.05;3.13;;;;;;;8.99;100.00;101209.31;5996857;29;20060;-96
2022/05/15 03:40:05;;;;;;;9.10;2.83;;;;;;;8.97;100.00;101210.31;6032183;29;20064;-96
2022/05/15 03:43:10;;;;;;;6.25;2.28;;;;;;;9.09;100.00;101208.72;6024184;29;20145;-96
2022/05/15 03:46:13;;;;;;;8.13;2.92;;;;;;;9.10;100.00;101213.81;6021246;29;20041;-96
2022/05/15 03:49:17;;;;;;;8.43;2.53;;;;;;;9.09;100.00;101219.88;6010207;29;20056;-96
2022/05/15 03:52:19;;;;;;;7.25;2.50;;;;;;;9.11;100.00;101218.03;6030763;29;20115;-96
2022/05/15 03:55:22;;;;;;;10.75;3.33;;;;;;;9.08;100.00;101210.47;6011350;29;20259;-96
2022/05/15 03:58:27;;;;;;;9.13;2.70;;;;;;;9.14;100.00;101209.25;5993231;29;20646;-96
2022/05/15 04:01:29;;;;;;;8.18;2.88;;;;;;;9.15;100.00;101216.94;6002315;29;20049;-96
2022/05/15 04:04:33;;;;;;;6.05;2.50;;;;;;;9.16;100.00;101221.16;6016249;29;20531;-96
2022/05/15 04:07:47;;;;;;;5.97;2.55;;;;;;;9.14;100.00;101230.78;6026158;29;20045;-96
2022/05/15 04:10:50;;;;;;;7.68;2.50;;;;;;;9.17;100.00;101230.59;6016079;29;20124;-96
2022/05/15 04:13:56;;;;;;;5.85;2.70;;;;;;;9.19;100.00;101233.06;5994988;29;20682;-96
2022/05/15 04:17:01;;;;;;;6.43;2.72;;;;;;;9.19;100.00;101233.91;6024041;29;20044;-96
2022/05/15 04:20:04;;;;;;;8.07;3.25;;;;;;;9.23;100.00;101235.34;6025187;29;20133;-96
2022/05/15 04:23:07;;;;;;;5.85;2.47;;;;;;;9.23;100.00;101219.84;6026485;29;20786;-96
2022/05/15 04:26:09;;;;;;;11.77;3.17;;;;;;;9.27;100.00;101228.25;6000149;29;20060;-96
2022/05/15 04:29:12;;;;;;;8.80;3.22;;;;;;;9.35;100.00;101232.94;6013032;29;20049;-96
2022/05/15 04:32:14;;;;;;;5.60;3.00;;;;;;;9.36;100.00;101227.66;6011994;29;20055;-96
2022/05/15 04:35:18;;;;;;;5.70;3.00;;;;;;;9.37;100.00;101233.69;6007583;29;21028;-96
2022/05/15 04:38:20;;;;;;;4.60;2.28;;;;;;;9.41;100.00;101228.22;6021698;29;20053;-96
2022/05/15 04:41:23;;;;;;;6.68;2.42;;;;;;;9.46;100.00;101226.16;6022339;29;20041;-96
2022/05/15 04:44:25;;;;;;;7.38;2.97;;;;;;;9.51;100.00;101228.47;6003686;29;20091;-96
2022/05/15 04:47:28;;;;;;;7.75;2.80;;;;;;;9.55;100.00;101234.28;6006166;29;20045;-96
2022/05/15 04:50:30;;;;;;;7.47;2.58;;;;;;;9.58;100.00;101234.91;6007957;29;20049;-96
2022/05/15 04:53:33;;;;;;;6.57;2.75;;;;;;;9.61;100.00;101237.28;6023751;29;20056;-96
2022/05/15 04:56:36;;;;;;;9.98;3.00;;;;;;;9.66;100.00;101243.03;6010310;29;20060;-96
2022/05/15 04:59:38;;;;;;;6.38;2.40;;;;;;;9.71;100.00;101245.28;6038123;29;20195;-96
2022/05/15 05:02:40;;;;;;;8.68;2.83;;;;;;;9.78;100.00;101253.50;6017546;29;20049;-96
2022/05/15 05:05:45;;;;;;;8.65;2.97;;;;;;;9.88;100.00;101246.81;6038075;29;20881;-96
2022/05/15 05:08:49;;;;;;;8.10;2.60;;;;;;;9.93;100.00;101237.81;6003431;29;20054;-96
2022/05/15 05:11:52;;;;;;;5.13;2.75;;;;;;;9.98;100.00;101250.44;6019832;29;20056;-96
2022/05/15 05:14:54;;;;;;;7.43;2.33;;;;;;;10.02;100.00;101249.31;6021272;29;20085;-96
2022/05/15 05:17:57;;;;;;;8.10;2.65;;;;;;;10.09;100.00;101249.78;5999828;29;20281;-96
2022/05/15 05:20:59;;;;;;;10.52;2.83;;;;;;;10.14;100.00;101248.53;6025217;29;20182;-96
2022/05/15 05:24:01;;;;;;;6.63;2.85;;;;;;;10.16;100.00;101245.84;6037048;29;20041;-96
2022/05/15 05:27:05;;;;;;;7.18;3.38;;;;;;;10.23;100.00;101246.25;6045268;29;20165;-96
2022/05/15 05:30:12;;;;;;;6.80;2.90;;;;;;;10.28;100.00;101247.63;6013659;29;20055;-96
2022/05/15 05:33:14;;;;;;;6.80;3.50;;;;;;;10.35;100.00;101245.47;6018131;29;20056;-96
2022/05/15 05:36:17;;;;;;;6.97;3.75;;;;;;;10.39;100.00;101249.53;6017580;29;20203;-96
2022/05/15 05:39:19;;;;;;;10.95;3.88;;;;;;;10.45;100.00;101243.09;6008361;29;20523;-96
2022/05/15 05:42:21;;;;;;;11.25;4.57;;;;;;;10.52;100.00;101247.78;6019236;29;20061;-96
2022/05/15 05:45:23;;;;;;;8.32;4.72;;;;;;;10.57;100.00;101247.47;6002283;29;20073;-96
2022/05/15 05:48:26;;;;;;;7.35;3.70;;;;;;;10.63;100.00;101247.03;6040677;29;20074;-96
2022/05/15 05:51:28;;;;;;;9.40;4.65;;;;;;;10.71;100.00;101256.91;6023858;29;20037;-96
2022/05/15 05:54:31;;;;;;;14.75;4.50;;;;;;;10.76;100.00;101258.25;6034752;29;20173;-96
2022/05/15 05:57:33;;;;;;;12.23;4.75;;;;;;;10.83;100.00;101256.06;6009631;29;20401;-96
2022/05/15 06:00:40;;;;;;;11.65;5.05;;;;;;;10.91;100.00;101253.78;6018543;29;20101;-95
2022/05/15 06:07:03;;;;;;;8.73;4.60;;;;;;;11.02;100.00;101259.97;6023684;29;20526;-96
2022/05/15 06:10:09;;;;;;;15.48;5.70;;;;;;;11.07;100.00;101256.13;5999032;29;20068;-96
2022/05/15 06:13:11;;;;;;;16.00;5.53;;;;;;;11.14;100.00;101254.75;6016948;29;20045;-96
2022/05/15 06:16:14;;;;;;;10.52;5.10;;;;;;;11.21;100.00;101255.19;6023417;29;20056;-96
2022/05/15 06:19:17;;;;;;;12.40;5.70;;;;;;;11.29;100.00;101263.22;6037593;29;20045;-96
2022/05/15 06:22:19;;;;;;;13.02;5.32;;;;;;;11.34;100.00;101255.13;6003447;29;20143;-95
2022/05/15 06:25:22;;;;;;;13.98;5.05;;;;;;;11.43;100.00;101251.91;5999578;29;20327;-96
2022/05/15 06:28:24;;;;;;;10.75;4.75;;;;;;;11.51;100.00;101257.38;6036243;29;20041;-96
2022/05/15 06:31:26;;;;;;;13.07;4.93;;;;;;;11.57;100.00;101253.50;6026325;29;20172;-95
2022/05/15 06:34:29;;;;;;;11.80;4.68;;;;;;;11.64;100.00;101242.56;6035157;29;20069;-96
2022/05/15 06:37:31;;;;;;;14.40;5.45;;;;;;;11.72;100.00;101248.97;6028152;29;20516;-96
2022/05/15 06:40:33;;;;;;;17.40;5.72;;;;;;;11.80;100.00;101252.69;6034550;29;20145;-95
2022/05/15 06:43:36;;;;;;;14.43;4.90;;;;;;;11.88;100.00;101249.56;6006326;29;20050;-95
2022/05/15 06:46:38;;;;;;;13.25;5.22;;;;;;;11.97;100.00;101237.66;6035329;29;20132;-95
2022/05/15 06:49:44;;;;;;;12.95;5.20;;;;;;;12.07;100.00;101242.09;5999664;29;20049;-95
2022/05/15 06:52:48;;;;;;;14.85;5.72;;;;;;;12.14;100.00;101237.25;6007144;29;20041;-96
2022/05/15 06:59:11;;;;;;;12.55;5.13;;;;;;;12.33;100.00;101246.28;6025801;29;20177;-95
2022/05/15 07:02:14;;;;;;;13.10;5.20;;;;;;;12.40;100.00;101231.91;6011467;29;20251;-96
2022/05/15 07:05:23;;;;;;;16.50;5.32;;;;;;;12.54;100.00;101242.06;5988951;29;20049;-95
2022/05/15 07:08:25;;;;;;;12.65;5.05;;;;;;;12.61;100.00;101237.22;6032690;29;20728;-94
2022/05/15 07:11:28;;;;;;;12.68;5.25;;;;;;;12.73;100.00;101238.06;6007591;29;20065;-94
2022/05/15 07:14:31;;;;;;;12.02;4.93;;;;;;;12.82;100.00;101246.00;6029760;29;20056;-95
2022/05/15 07:17:33;;;;;;;12.65;4.35;;;;;;;12.91;100.00;101247.84;6001759;29;20046;-96
2022/05/15 07:20:36;;;;;;;11.80;4.32;;;;;;;13.05;100.00;101251.19;6013987;29;20184;-93
2022/05/15 07:23:38;;;;;;;8.55;3.70;;;;;;;13.15;100.00;101254.72;6014154;29;20049;-93
2022/05/15 07:26:44;;;;;;;11.68;3.90;;;;;;;13.25;100.00;101257.41;6017484;29;20060;-93
2022/05/15 07:29:46;;;;;;;11.95;4.25;;;;;;;13.30;100.00;101250.94;6028303;29;20064;-94
2022/05/15 07:32:48;;;;;;;8.98;3.47;;;;;;;13.40;100.00;101256.25;6010633;29;20135;-93
2022/05/15 07:35:51;;;;;;;12.38;3.55;;;;;;;13.51;100.00;101251.00;6034097;29;20044;-93
2022/05/15 07:38:53;;;;;;;7.35;3.72;;;;;;;13.66;100.00;101248.13;6026325;29;20045;-92
2022/05/15 07:41:55;;;;;;;8.35;3.50;;;;;;;13.77;100.00;101251.50;6024997;29;20052;-92
2022/05/15 07:44:59;;;;;;;13.07;3.60;;;;;;;13.87;100.00;101250.78;6021249;29;20655;-92
2022/05/15 07:48:01;;;;;;;10.93;4.28;;;;;;;13.97;100.00;101249.06;6003793;29;20049;-92
2022/05/15 07:51:03;;;;;;;11.80;4.32;;;;;;;14.06;100.00;101248.34;6019055;29;20052;-92
2022/05/15 07:54:06;;;;;;;12.38;4.05;;;;;;;14.13;100.00;101244.25;6010754;29;20048;-92
2022/05/15 07:57:08;;;;;;;9.90;3.47;;;;;;;14.24;100.00;101251.19;6013337;29;20602;-92
2022/05/15 08:00:14;;;;;;;13.30;3.75;;;;;;;14.34;100.00;101253.84;5995323;29;20506;-91
2022/05/15 08:03:16;;;;;;;13.30;4.00;;;;;;;14.40;99.37;101248.94;6009127;29;20140;-91
2022/05/15 08:09:39;;;;;;;10.40;3.88;;;;;;;14.63;97.70;101241.84;6021469;29;20190;-92
2022/05/15 08:12:41;;;;;;;12.50;4.53;;;;;;;14.76;97.14;101239.03;6033136;29;20045;-92
2022/05/15 08:15:44;;;;;;;13.45;3.53;;;;;;;14.87;96.43;101243.31;6013827;29;20163;-92
2022/05/15 08:25:28;;;;;;;;;;;;;;;15.29;91.23;101235.34;6034385;29;20638;-92
2022/05/15 08:28:30;;;;;;;11.00;3.30;;;;;;;15.42;92.40;101233.28;5995410;29;19928;-92
2022/05/15 08:31:33;;;;;;;10.77;3.60;;;;;;;15.55;88.89;101232.19;6024584;29;20500;-93
2022/05/15 08:34:36;;;;;;;13.23;3.22;;;;;;;15.64;90.51;101237.44;6028603;29;20053;-92
2022/05/15 08:37:40;;;;;;;12.07;3.30;;;;;;;15.80;90.17;101238.69;5999613;29;20052;-92
2022/05/15 08:41:15;;;;;;;15.52;3.65;;;;;;;15.92;85.83;101233.22;6023819;29;20045;-92
2022/05/15 08:44:30;;;;;;;10.45;3.10;;;;;;;15.92;84.22;101240.22;5987140;29;20536;-93
2022/05/15 08:47:40;;;;;;;16.13;3.75;;;;;;;16.00;83.43;101236.91;5986360;29;20611;-92
2022/05/15 08:50:49;;;;;;;12.20;3.17;;;;;;;16.11;86.10;101231.53;5967481;29;20053;-92
2022/05/15 08:53:51;;;;;;;9.65;3.05;;;;;;;16.23;83.20;101229.59;5992631;29;20065;-91
2022/05/15 08:56:54;;;;;;;14.10;3.47;;;;;;;16.29;81.87;101237.69;5990756;29;20652;-92
2022/05/15 08:59:58;;;;;;;13.45;3.78;;;;;;;16.48;80.81;101238.63;5973713;29;20093;-92
2022/05/15 09:03:12;;;;;;;14.00;3.90;;;;;;;16.60;82.76;101236.66;5979016;29;20069;-92
2022/05/15 09:06:45;;;;;;;11.88;3.30;;;;;;;16.71;79.45;101231.22;5977031;29;20524;-92
2022/05/15 09:10:11;;;;;;;12.93;3.38;;;;;;;16.76;79.19;101231.63;5988345;29;20050;-92
2022/05/15 09:13:38;;;;;;;16.92;3.80;;;;;;;16.88;79.08;101232.28;5991018;29;20063;-92
2022/05/15 09:16:54;;;;;;;11.23;3.20;;;;;;;17.12;75.79;101229.16;5979616;29;20501;-92
2022/05/15 09:20:00;;;;;;;12.30;3.50;;;;;;;17.22;76.16;101228.13;5990799;29;20557;-91
2022/05/15 09:23:14;;;;;;;15.85;5.20;;;;;;;17.27;74.73;101232.91;6021219;29;20041;-92
2022/05/15 09:26:22;;;;;;;14.80;3.83;;;;;;;17.30;76.04;101227.38;6026492;29;20057;-92
2022/05/15 09:29:28;;;;;;;12.73;3.88;;;;;;;17.38;77.09;101229.25;6006075;29;20411;-92
2022/05/15 09:32:39;;;;;;;16.48;4.60;;;;;;;17.52;75.34;101231.38;6018308;29;20052;-92
2022/05/15 09:35:41;;;;;;;11.65;3.67;;;;;;;17.63;72.57;101225.88;6034481;29;20069;-90
2022/05/15 09:38:43;;;;;;;15.10;5.00;;;;;;;17.72;68.95;101223.34;6008304;29;20132;-92
2022/05/15 09:45:30;;;;;;;9.80;3.22;;;;;;;17.92;71.24;101213.56;6023218;29;20053;-91
2022/05/15 09:48:38;;;;;;;11.65;3.60;;;;;;;18.08;70.32;101219.72;6014156;29;20065;-92
2022/05/15 09:51:45;;;;;;;11.65;3.25;;;;;;;18.23;67.17;101213.94;6033110;29;20057;-92
2022/05/15 09:54:50;;;;;;;12.70;3.67;;;;;;;18.32;70.61;101214.81;6019843;29;20495;-91
2022/05/15 09:58:15;;;;;;;12.43;3.40;;;;;;;18.47;69.12;101216.69;6017191;29;20045;-92
2022/05/15 10:01:27;;;;;;;15.38;3.45;;;;;;;18.58;63.96;101215.59;6022586;29;20045;-91
2022/05/15 10:04:32;;;;;;;11.55;3.08;;;;;;;18.50;62.12;101216.38;6021455;29;20396;-91
2022/05/15 10:07:44;;;;;;;10.93;3.22;;;;;;;18.46;59.07;101211.63;6038224;29;20108;-92
2022/05/15 10:11:06;;;;;;;10.52;3.30;;;;;;;18.57;64.55;101211.34;6004140;29;20835;-92
2022/05/15 10:14:21;;;;;;;10.50;2.97;;;;;;;18.88;60.98;101213.44;6019812;29;20120;-91
2022/05/15 10:17:25;;;;;;;8.02;3.20;;;;;;;18.94;62.39;101211.03;6005674;29;20830;-92
2022/05/15 10:20:34;;;;;;;13.15;3.35;;;;;;;19.03;58.46;101213.66;6014810;29;20056;-92
2022/05/15 10:23:48;;;;;;;15.20;3.40;;;;;;;19.15;59.84;101200.09;6007533;29;20064;-92
2022/05/15 10:27:10;;;;;;;10.98;3.10;;;;;;;19.22;58.44;101202.88;6006017;29;20383;-93
2022/05/15 10:30:18;;;;;;;13.43;3.35;;;;;;;19.33;59.66;101199.97;6014411;29;20057;-92
2022/05/15 10:33:21;;;;;;;9.57;2.85;;;;;;;19.57;61.93;101187.84;6038677;29;20040;-92
2022/05/15 10:37:13;;;;;;;11.15;3.30;;;;;;;19.79;58.03;101197.72;6027043;29;20053;-94
2022/05/15 10:40:24;;;;;;;9.68;2.80;;;;;;;19.81;51.90;101188.84;6024828;29;20056;-93
2022/05/15 10:44:10;;;;;;;9.68;2.50;;;;;;;19.76;53.52;101190.16;6030458;29;20583;-94
2022/05/15 10:47:19;;;;;;;9.88;2.70;;;;;;;19.88;53.91;101187.22;5943761;29;20758;-94
2022/05/15 10:50:31;;;;;;;9.38;3.08;;;;;;;19.85;53.01;101185.75;5934357;29;20165;-93
2022/05/15 10:57:29;;;;;;;10.75;3.08;;;;;;;20.11;56.88;101179.44;5942774;29;20165;-94
2022/05/15 11:00:44;;;;;;;10.48;3.42;;;;;;;20.26;53.17;101169.88;5938993;29;20062;-93
2022/05/15 11:04:02;;;;;;;7.85;3.00;;;;;;;20.30;57.10;101165.94;5940587;29;20070;-93
2022/05/15 11:07:13;;;;;;;10.18;3.00;;;;;;;20.41;53.44;101172.63;5921041;29;20051;-92
2022/05/15 11:10:40;;;;;;;11.73;3.33;;;;;;;20.57;55.68;101169.13;5935953;29;20518;-92
2022/05/15 11:13:54;;;;;;;8.88;2.60;;;;;;;20.69;54.08;101159.06;5916190;29;20367;-92
2022/05/15 11:17:27;;;;;;;12.60;3.10;;;;;;;20.89;53.78;101160.25;5934213;29;20058;-92
2022/05/15 11:20:45;;;;;;;8.50;2.35;;;;;;;21.01;49.41;101163.31;5938230;29;20038;-92
2022/05/15 11:24:00;;;;;;;7.60;2.78;;;;;;;21.07;51.20;101160.81;5991463;29;20088;-92
2022/05/15 11:27:20;;;;;;;24.10;5.45;;;;;;;21.16;49.95;101156.31;6026020;29;20072;-93
2022/05/15 11:30:27;;;;;;;10.50;3.33;;;;;;;21.17;49.00;101157.16;6022505;29;20168;-92
2022/05/15 11:33:48;;;;;;;10.45;2.53;;;;;;;21.32;49.58;101154.56;6007089;29;20085;-93
2022/05/15 11:36:50;;;;;;;8.80;2.67;;;;;;;21.50;49.31;101141.94;6018991;29;20185;-92
2022/05/15 11:39:59;;;;;;;5.72;2.88;;;;;;;21.68;44.79;101144.25;6021481;29;20393;-93
2022/05/15 11:43:26;;;;;;;11.13;3.03;;;;;;;21.73;47.95;101139.25;6040202;29;20044;-93
2022/05/15 11:46:54;;;;;;;5.60;2.50;;;;;;;21.84;45.61;101135.38;6031978;29;20049;-92
2022/05/15 11:50:11;;;;;;;7.03;3.47;;;;;;;21.86;43.87;101128.06;5945553;29;20122;-92
2022/05/15 11:53:29;;;;;;;10.10;2.60;;;;;;;22.02;46.20;101127.91;5959867;29;20076;-93
2022/05/15 11:56:58;;;;;;;10.30;2.75;;;;;;;22.26;49.18;101123.38;5950639;29;20046;-92
2022/05/15 12:00:04;;;;;;;12.48;3.28;;;;;;;22.50;44.61;101128.34;5960701;29;20070;-92
2022/05/15 12:03:47;;;;;;;12.02;3.42;;;;;;;22.69;46.40;101132.22;5950964;29;20134;-93
2022/05/15 12:06:58;;;;;;;11.05;3.10;;;;;;;22.93;45.63;101124.94;5957695;29;20529;-94
2022/05/15 12:10:00;;;;;;;8.95;3.00;;;;;;;22.99;41.59;101117.13;5952910;29;20060;-92
2022/05/15 12:13:31;;;;;;;10.23;3.08;;;;;;;23.19;44.68;101116.50;5947114;29;20055;-92
2022/05/15 12:16:57;;;;;;;9.43;2.75;;;;;;;23.25;40.43;101113.09;5948239;29;20070;-92
2022/05/15 12:20:15;;;;;;;10.45;3.17;;;;;;;23.37;40.79;101105.47;5937666;29;20054;-92
2022/05/15 12:23:21;;;;;;;11.23;2.85;;;;;;;23.54;40.49;101111.31;5941224;29;20607;-94
2022/05/15 12:26:50;;;;;;;9.45;2.80;;;;;;;23.70;40.88;101099.59;5983932;29;20516;-92
2022/05/15 12:30:08;;;;;;;8.07;3.35;;;;;;;23.97;42.80;101095.31;6003328;29;20053;-92
2022/05/15 12:33:11;;;;;;;11.70;3.15;;;;;;;24.16;41.83;101099.91;6017741;29;20444;-92
2022/05/15 12:36:20;;;;;;;6.57;3.03;;;;;;;24.28;40.80;101097.50;6015879;29;20033;-92
2022/05/15 12:39:33;;;;;;;6.90;2.22;;;;;;;24.45;39.32;101092.69;6018842;29;20048;-92
2022/05/15 12:42:42;;;;;;;6.25;2.47;;;;;;;24.59;41.39;101077.69;6010059;29;20169;-93
2022/05/15 12:45:44;;;;;;;6.32;2.38;;;;;;;24.69;41.16;101091.34;6027897;29;20463;-92
2022/05/15 12:48:46;;;;;;;6.95;2.83;;;;;;;24.79;40.68;101077.72;6028148;29;20053;-92
2022/05/15 12:51:49;;;;;;;8.27;2.63;;;;;;;24.69;41.69;101078.09;6020355;29;20073;-93
2022/05/15 12:54:58;;;;;;;7.80;2.55;;;;;;;24.68;39.37;101077.28;6037483;29;20045;-93
2022/05/15 12:58:07;;;;;;;8.43;2.50;;;;;;;24.62;41.45;101078.13;6026895;29;20498;-84
2022/05/15 13:01:13;;;;;;;11.48;2.75;;;;;;;24.66;38.15;101068.72;6016901;29;20045;-83
2022/05/15 13:04:21;;;;;;;8.82;2.35;;;;;;;24.61;38.53;101065.88;6023059;29;20060;-84
2022/05/15 13:07:24;;;;;;;5.00;2.38;;;;;;;24.66;39.56;101062.63;6022172;29;20128;-85
2022/05/15 13:10:28;;;;;;;7.68;2.45;;;;;;;24.78;40.82;101062.84;6023074;29;20048;-84
2022/05/15 13:13:35;;;;;;;7.10;2.42;;;;;;;25.15;41.68;101056.16;6022187;29;20045;-87
2022/05/15 13:16:43;;;;;;;7.93;3.00;;;;;;;25.35;38.45;101049.03;6025715;29;20048;-86
2022/05/15 13:19:48;;;;;;;7.32;2.67;;;;;;;25.64;38.03;101046.09;6017463;29;20144;-87
2022/05/15 13:22:52;;;;;;;6.30;2.47;;;;;;;25.86;37.81;101039.53;6035227;29;20059;-86
2022/05/15 13:25:54;;;;;;;7.72;2.58;;;;;;;26.00;36.13;101035.81;6030551;29;20093;-86
2022/05/15 13:29:01;;;;;;;8.65;2.83;;;;;;;26.05;34.46;101032.53;6022154;29;20073;-85
2022/05/15 13:32:05;;;;;;;7.53;2.30;;;;;;;26.05;35.52;101039.69;6034558;29;20057;-84
2022/05/15 13:35:10;;;;;;;6.80;2.47;;;;;;;26.14;34.79;101036.56;5995286;29;20049;-86
2022/05/15 13:43:17;;;;;;;6.72;2.20;;;;;;;26.14;35.65;101038.41;6018140;29;20048;-86
2022/05/15 13:45:21;;;;;;;10.40;2.70;;;;;;;25.99;35.34;101036.03;6017985;29;20049;-86
2022/05/15 13:48:23;;;;;;;6.88;2.20;;;;;;;26.19;36.77;101038.59;6029252;29;20075;-88
2022/05/15 13:51:45;;;;;;;3.85;1.88;;;;;;;26.15;32.86;101029.44;5992945;29;20060;-88
2022/05/15 13:54:47;;;;;;;9.00;2.15;;;;;;;26.16;36.15;101031.88;6003633;29;20755;-88
2022/05/15 13:57:57;;;;;;;5.60;2.15;;;;;;;26.20;33.85;101021.63;6019041;29;20069;-87
2022/05/15 14:01:16;;;;;;;5.32;1.98;;;;;;;26.29;34.16;101017.72;6033006;29;20526;-88
2022/05/15 14:04:28;;;;;;;8.07;2.42;;;;;;;26.51;33.29;101018.19;6036143;29;20177;-87
2022/05/15 14:07:33;;;;;;;5.40;2.25;;;;;;;26.66;34.78;101017.09;6021959;29;20049;-88
2022/05/15 14:10:36;;;;;;;12.70;2.55;;;;;;;26.92;35.14;101018.72;6030607;29;20052;-88
2022/05/15 14:13:48;;;;;;;11.95;2.40;;;;;;;27.07;34.12;101016.53;6009145;29;20052;-87
2022/05/15 14:17:02;;;;;;;5.65;2.38;;;;;;;26.93;31.13;101020.34;6017495;29;20144;-86
2022/05/15 14:20:08;;;;;;;7.10;2.58;;;;;;;26.52;32.95;101011.84;6013323;29;20732;-86
2022/05/15 14:23:13;;;;;;;7.57;2.28;;;;;;;26.40;33.84;101003.75;6027123;29;20056;-86
2022/05/15 14:26:17;;;;;;;8.32;2.80;;;;;;;26.35;36.83;101008.88;6007592;29;20473;-86
2022/05/15 14:29:19;;;;;;;3.75;2.03;;;;;;;26.18;36.14;101005.91;6037820;29;20154;-85
2022/05/15 14:32:27;;;;;;;6.65;2.08;;;;;;;26.34;36.51;100995.84;6007514;29;20056;-86
2022/05/15 14:35:35;;;;;;;4.22;2.30;;;;;;;26.58;34.80;100994.25;6034379;29;20148;-86
2022/05/15 14:38:38;;;;;;;7.18;2.17;;;;;;;26.97;35.07;101000.28;6022329;29;20092;-87
2022/05/15 14:41:40;;;;;;;7.25;2.22;;;;;;;27.42;32.55;100995.56;5984382;29;20080;-87
2022/05/15 14:44:43;;;;;;;6.93;2.40;;;;;;;27.66;30.52;100991.22;6033089;29;20491;-87
2022/05/15 14:47:48;;;;;;;6.10;2.13;;;;;;;27.63;29.58;100994.31;6013836;29;20175;-86
2022/05/15 14:50:53;;;;;;;3.92;1.88;;;;;;;27.58;31.87;100986.19;6016296;29;20439;-86